Terminal Aerodrome Forecast
Issued by NWS

Home | Current Version | Previous Version | Text Only | Print | Product List | Glossary On
Versions: 1 2 3 4 5 6 7 8 9 10 11 12 13 14 15 16 17
422
FTUS43 KMQT 101720
TAFSAW
TAF
KSAW 101720Z 1018/1118 34013G20KT 1 1/2SM -SHSN OVC012
     FM102200 33011G18KT 3SM -SHSN OVC025
     FM110300 33009KT 5SM -SHSN OVC020
     FM111000 32007KT P6SM VCSH BKN035
     FM111100 32006KT P6SM BKN040
     FM111700 29008KT P6SM BKN030=

USA.gov is the U.S. government's official web portal to all federal, state and local government web resources and services.